Time;durP1;ratioP1;P1;durP2;ratioP2;P2;SDS_P1;SDS_P2;PMS_P1;PMS_P2;Temp;Humidity;BMP_temperature;BMP_pressure;BME280_temperature;BME280_humidity;BME280_pressure;Samples;Min_cycle;Max_cycle;Signal;HPM_P1;HPM_P2
2021/12/29 00:01:08;;;;;;;21.77;15.17;;;1.30;99.90;;;;;;5093817;28;20204;-84
2021/12/29 00:03:36;;;;;;;26.40;17.00;;;1.30;99.90;;;;;;5109876;28;20207;-84
2021/12/29 00:06:05;;;;;;;24.07;15.43;;;1.30;99.90;;;;;;5117418;28;20250;-82
2021/12/29 00:08:35;;;;;;;27.13;15.37;;;1.30;99.90;;;;;;5117307;28;20234;-81
2021/12/29 00:11:03;;;;;;;18.87;13.70;;;1.30;99.90;;;;;;5116340;28;20239;-82
2021/12/29 00:13:35;;;;;;;21.67;16.00;;;1.40;99.90;;;;;;5105170;28;20284;-81
2021/12/29 00:16:04;;;;;;;24.20;15.90;;;1.40;99.90;;;;;;5096311;28;20252;-82
2021/12/29 00:18:35;;;;;;;23.43;16.43;;;1.40;99.90;;;;;;5096734;28;20213;-81
2021/12/29 00:21:05;;;;;;;20.50;14.73;;;1.40;99.90;;;;;;5096611;28;20218;-81
2021/12/29 00:23:41;;;;;;;21.20;15.63;;;1.50;99.90;;;;;;5111322;28;20200;-81
2021/12/29 00:26:28;;;;;;;21.07;14.53;;;1.50;99.90;;;;;;5117115;28;20220;-82
2021/12/29 00:28:58;;;;;;;26.40;15.10;;;1.50;99.90;;;;;;5116598;28;20210;-83
2021/12/29 00:31:29;;;;;;;24.27;14.63;;;1.50;99.90;;;;;;5116709;27;20237;-82
2021/12/29 00:34:06;;;;;;;19.37;14.50;;;1.50;99.90;;;;;;5117067;28;20230;-82
2021/12/29 00:36:34;;;;;;;21.17;15.63;;;1.50;99.90;;;;;;5116510;28;20220;-82
2021/12/29 00:39:04;;;;;;;31.50;16.90;;;1.50;99.90;;;;;;5116363;28;20199;-82
2021/12/29 00:41:33;;;;;;;23.50;16.07;;;1.50;99.90;;;;;;5116494;28;20225;-82
2021/12/29 00:44:01;;;;;;;21.70;15.47;;;1.50;99.90;;;;;;5115945;28;20224;-83
2021/12/29 00:46:33;;;;;;;28.20;17.63;;;1.50;99.90;;;;;;5121715;27;20244;-82
2021/12/29 00:49:01;;;;;;;23.67;17.03;;;1.50;99.90;;;;;;5115266;27;20282;-82
2021/12/29 00:51:29;;;;;;;24.37;17.20;;;1.50;99.90;;;;;;5095772;28;20283;-82
2021/12/29 00:53:59;;;;;;;27.70;17.93;;;1.50;99.90;;;;;;5095762;28;20255;-82
2021/12/29 00:56:29;;;;;;;34.67;18.20;;;1.50;99.90;;;;;;5098080;28;20227;-81
2021/12/29 00:58:58;;;;;;;51.63;18.57;;;1.40;99.90;;;;;;5113736;28;20315;-84
2021/12/29 01:01:28;;;;;;;24.63;18.27;;;1.40;99.90;;;;;;5097986;28;20291;-85
2021/12/29 01:04:08;;;;;;;41.33;18.07;;;1.40;99.90;;;;;;5116595;27;20198;-85
2021/12/29 01:06:36;;;;;;;33.93;17.83;;;1.40;99.90;;;;;;5136431;27;20249;-83
2021/12/29 01:09:05;;;;;;;46.87;18.27;;;1.40;99.90;;;;;;5126918;27;20200;-84
2021/12/29 01:11:35;;;;;;;24.40;16.87;;;1.40;99.90;;;;;;5105244;28;20226;-84
2021/12/29 01:14:04;;;;;;;25.00;16.27;;;1.40;99.90;;;;;;5132887;27;20287;-84
2021/12/29 01:16:38;;;;;;;24.87;16.90;;;1.40;99.90;;;;;;5130530;27;20216;-84
2021/12/29 01:19:11;;;;;;;29.13;16.47;;;1.40;99.90;;;;;;5115205;28;20270;-84
2021/12/29 01:21:41;;;;;;;25.77;16.67;;;1.40;99.90;;;;;;5115372;28;20299;-84
2021/12/29 01:24:12;;;;;;;25.80;18.07;;;1.30;99.90;;;;;;5115019;28;20235;-84
2021/12/29 01:26:45;;;;;;;27.10;17.30;;;1.40;99.90;;;;;;5114631;28;20216;-85
2021/12/29 01:29:22;;;;;;;26.73;17.07;;;1.40;99.90;;;;;;5125118;27;20207;-85
2021/12/29 01:31:51;;;;;;;26.17;17.47;;;1.40;99.90;;;;;;5135798;27;20281;-85
2021/12/29 01:34:20;;;;;;;27.77;16.57;;;1.40;99.90;;;;;;5135983;27;20215;-85
2021/12/29 01:36:48;;;;;;;26.77;17.73;;;1.40;99.90;;;;;;5135891;27;20301;-85
2021/12/29 01:39:18;;;;;;;26.40;16.03;;;1.40;99.90;;;;;;5135284;27;20231;-85
2021/12/29 01:41:51;;;;;;;22.43;15.77;;;1.40;99.90;;;;;;5135746;27;20199;-85
2021/12/29 01:44:24;;;;;;;25.80;16.70;;;1.30;99.90;;;;;;5135502;27;20210;-85
2021/12/29 01:46:53;;;;;;;21.63;15.17;;;1.30;99.90;;;;;;5135409;27;20230;-85
2021/12/29 01:49:22;;;;;;;22.20;16.90;;;1.40;99.90;;;;;;5135152;27;20290;-85
2021/12/29 01:52:01;;;;;;;23.90;15.73;;;1.40;99.90;;;;;;5102087;27;20204;-85
2021/12/29 01:54:34;;;;;;;21.33;15.73;;;1.40;99.90;;;;;;5098685;28;20227;-85
2021/12/29 01:57:06;;;;;;;32.47;18.97;;;1.40;99.90;;;;;;5094593;28;20211;-85
2021/12/29 01:59:36;;;;;;;25.30;17.37;;;1.40;99.90;;;;;;5094203;28;20284;-85
2021/12/29 02:02:05;;;;;;;21.73;15.60;;;1.30;99.90;;;;;;5109811;28;20219;-85
2021/12/29 02:04:34;;;;;;;26.50;16.57;;;1.40;99.90;;;;;;5105091;27;20204;-87
2021/12/29 02:07:04;;;;;;;26.80;16.83;;;1.40;99.90;;;;;;5134692;27;20286;-87
2021/12/29 02:09:32;;;;;;;28.90;18.70;;;1.40;99.90;;;;;;5124286;27;20231;-87
2021/12/29 02:12:01;;;;;;;29.90;16.73;;;1.40;99.90;;;;;;5114941;28;20234;-87
2021/12/29 02:14:32;;;;;;;28.00;17.80;;;1.50;99.90;;;;;;5114607;28;20204;-87
2021/12/29 02:17:01;;;;;;;21.87;15.87;;;1.50;99.90;;;;;;5114929;28;20282;-87
2021/12/29 02:19:30;;;;;;;23.40;15.87;;;1.40;99.90;;;;;;5113898;28;20223;-86
2021/12/29 02:22:03;;;;;;;26.07;16.33;;;1.40;99.90;;;;;;5103021;28;20240;-85
2021/12/29 02:24:39;;;;;;;25.13;15.57;;;1.40;99.90;;;;;;5099152;28;20223;-85
2021/12/29 02:27:08;;;;;;;22.87;15.67;;;1.40;99.90;;;;;;5105535;28;20222;-85
2021/12/29 02:29:37;;;;;;;19.87;14.90;;;1.40;99.90;;;;;;5095977;28;20218;-85
2021/12/29 02:32:06;;;;;;;28.10;16.63;;;1.40;99.90;;;;;;5114170;28;20235;-85
2021/12/29 02:34:35;;;;;;;28.60;17.43;;;1.40;99.90;;;;;;5113972;28;20204;-85
2021/12/29 02:37:05;;;;;;;21.77;15.13;;;1.40;99.90;;;;;;5114576;28;20207;-85
2021/12/29 02:39:37;;;;;;;30.13;17.37;;;1.40;99.90;;;;;;5112119;28;20262;-86
2021/12/29 02:42:08;;;;;;;28.10;16.60;;;1.50;99.90;;;;;;5114504;28;20230;-86
2021/12/29 02:44:40;;;;;;;25.17;16.70;;;1.50;99.90;;;;;;5113919;28;20208;-86
2021/12/29 02:47:10;;;;;;;20.87;15.17;;;1.50;99.90;;;;;;5113031;28;20264;-86
2021/12/29 02:49:38;;;;;;;25.33;16.77;;;1.50;99.90;;;;;;5108185;28;20193;-85
2021/12/29 02:52:11;;;;;;;22.10;16.57;;;1.50;99.90;;;;;;5093955;28;20231;-85
2021/12/29 02:54:39;;;;;;;23.23;15.83;;;1.50;99.90;;;;;;5093928;28;20201;-85
2021/12/29 02:57:08;;;;;;;22.07;15.97;;;1.50;99.90;;;;;;5094764;28;20280;-85
2021/12/29 02:59:37;;;;;;;24.63;16.40;;;1.50;99.90;;;;;;5093001;28;20220;-87
2021/12/29 03:02:05;;;;;;;25.07;16.47;;;1.50;99.90;;;;;;5095016;28;20227;-85
2021/12/29 03:04:33;;;;;;;34.30;17.43;;;1.50;99.90;;;;;;5096158;28;20200;-85
2021/12/29 03:07:02;;;;;;;26.60;17.27;;;1.50;99.90;;;;;;5113446;28;20203;-85
2021/12/29 03:09:34;;;;;;;31.93;17.67;;;1.50;99.90;;;;;;5112710;28;20200;-85
2021/12/29 03:12:03;;;;;;;24.17;16.23;;;1.60;99.90;;;;;;5096901;28;20223;-85
2021/12/29 03:14:32;;;;;;;28.47;18.47;;;1.50;99.90;;;;;;5093834;28;20283;-85
2021/12/29 03:17:01;;;;;;;25.37;17.53;;;1.50;99.90;;;;;;5094710;28;20264;-85
2021/12/29 03:19:29;;;;;;;27.57;18.73;;;1.50;99.90;;;;;;5106880;28;20209;-85
2021/12/29 03:21:57;;;;;;;43.57;18.20;;;1.50;99.90;;;;;;5102458;28;20227;-85
2021/12/29 03:24:25;;;;;;;37.00;19.57;;;1.50;99.90;;;;;;5103845;28;20286;-85
2021/12/29 03:26:56;;;;;;;27.40;20.03;;;1.50;99.90;;;;;;5104782;28;20220;-85
2021/12/29 03:29:24;;;;;;;31.47;19.03;;;1.50;99.90;;;;;;5092705;28;20221;-85
2021/12/29 03:31:52;;;;;;;26.97;17.67;;;1.50;99.90;;;;;;5093252;28;20223;-85
2021/12/29 03:34:21;;;;;;;29.10;18.13;;;1.50;99.90;;;;;;5109171;28;20204;-84
2021/12/29 03:36:49;;;;;;;24.27;17.17;;;1.50;99.90;;;;;;5105233;28;20220;-84
2021/12/29 03:39:18;;;;;;;30.83;18.63;;;1.50;99.90;;;;;;5110025;28;20287;-84
2021/12/29 03:41:46;;;;;;;27.30;18.50;;;1.40;99.90;;;;;;5117687;28;20208;-84
2021/12/29 03:44:16;;;;;;;23.23;16.47;;;1.50;99.90;;;;;;5115537;28;20287;-84
2021/12/29 03:46:45;;;;;;;20.17;15.83;;;1.50;99.90;;;;;;5117586;28;20306;-85
2021/12/29 03:49:13;;;;;;;18.23;14.60;;;1.40;99.90;;;;;;5115518;28;20259;-84
2021/12/29 03:51:42;;;;;;;21.70;14.90;;;1.40;99.90;;;;;;5106804;28;20202;-84
2021/12/29 03:54:10;;;;;;;19.77;13.47;;;1.50;99.90;;;;;;5104831;28;20288;-84
2021/12/29 03:56:38;;;;;;;33.07;13.73;;;1.40;99.90;;;;;;5114015;28;20317;-83
2021/12/29 03:59:07;;;;;;;18.47;13.03;;;1.40;99.90;;;;;;5116620;28;20311;-84
2021/12/29 04:01:36;;;;;;;15.33;12.20;;;1.40;99.90;;;;;;5105189;28;20260;-83
2021/12/29 04:04:05;;;;;;;14.60;10.97;;;1.40;99.90;;;;;;5111982;28;20213;-83
2021/12/29 04:06:33;;;;;;;14.77;10.03;;;1.40;99.90;;;;;;5102705;28;20276;-83
2021/12/29 04:09:04;;;;;;;15.90;9.87;;;1.40;99.90;;;;;;5097323;28;20235;-83
2021/12/29 04:11:33;;;;;;;14.93;9.93;;;1.30;99.90;;;;;;5116993;28;20286;-83
2021/12/29 04:14:01;;;;;;;15.17;10.40;;;1.30;99.90;;;;;;5111806;27;20280;-83
2021/12/29 04:16:30;;;;;;;14.93;10.70;;;1.30;99.90;;;;;;5097612;28;20252;-83
2021/12/29 04:19:17;;;;;;;13.43;10.63;;;1.30;99.90;;;;;;5097259;28;20216;-84
2021/12/29 04:21:48;;;;;;;11.03;9.50;;;1.30;99.90;;;;;;5096888;28;20275;-84
2021/12/29 04:24:16;;;;;;;19.90;11.00;;;1.30;99.90;;;;;;5101285;28;20218;-83
2021/12/29 04:26:45;;;;;;;17.03;11.80;;;1.30;99.90;;;;;;5096588;28;20255;-84
2021/12/29 04:29:13;;;;;;;15.50;11.37;;;1.30;99.90;;;;;;5097033;28;20299;-84
2021/12/29 04:31:43;;;;;;;16.57;11.70;;;1.40;99.90;;;;;;5112036;28;20296;-84
2021/12/29 04:34:13;;;;;;;16.87;11.70;;;1.30;99.90;;;;;;5105437;28;20242;-83
2021/12/29 04:36:41;;;;;;;13.00;10.53;;;1.30;99.90;;;;;;5105914;28;20228;-83
2021/12/29 04:39:10;;;;;;;15.63;11.47;;;1.40;99.90;;;;;;5095376;28;20298;-83
2021/12/29 04:41:38;;;;;;;13.20;11.13;;;1.40;99.90;;;;;;5111671;28;20260;-83
2021/12/29 04:44:06;;;;;;;19.07;11.73;;;1.40;99.90;;;;;;5114588;28;20196;-83
2021/12/29 04:46:39;;;;;;;12.20;10.27;;;1.40;99.90;;;;;;5116280;28;20219;-83
2021/12/29 04:49:12;;;;;;;15.63;11.13;;;1.40;99.90;;;;;;5114290;28;20192;-83
2021/12/29 04:51:51;;;;;;;19.90;11.17;;;1.40;99.90;;;;;;5115722;28;20191;-83
2021/12/29 04:54:19;;;;;;;15.73;10.77;;;1.40;99.90;;;;;;5104791;28;20228;-83
2021/12/29 04:56:48;;;;;;;13.43;10.27;;;1.40;99.90;;;;;;5095728;28;20255;-83
2021/12/29 04:59:16;;;;;;;16.83;10.90;;;1.40;99.90;;;;;;5095132;28;20284;-83
2021/12/29 05:01:46;;;;;;;12.87;10.20;;;1.40;99.90;;;;;;5100478;28;20200;-83
2021/12/29 05:04:20;;;;;;;13.17;10.50;;;1.40;99.90;;;;;;5104643;28;20204;-83
2021/12/29 05:09:38;;;;;;;12.20;10.27;;;1.40;99.90;;;;;;5095424;28;20235;-83
2021/12/29 05:12:07;;;;;;;14.33;10.73;;;1.50;99.90;;;;;;5115985;28;20284;-83
2021/12/29 05:14:37;;;;;;;18.10;11.53;;;1.50;99.90;;;;;;5112942;28;20223;-83
2021/12/29 05:17:06;;;;;;;13.57;10.70;;;1.50;99.90;;;;;;5095930;28;20228;-83
2021/12/29 05:19:35;;;;;;;11.33;9.60;;;1.50;99.90;;;;;;5100614;28;20244;-83
2021/12/29 05:22:06;;;;;;;11.10;9.90;;;1.50;99.90;;;;;;5115041;28;20243;-83
2021/12/29 05:24:34;;;;;;;11.00;9.73;;;1.50;99.90;;;;;;5114098;28;20235;-83
2021/12/29 05:27:03;;;;;;;12.77;11.37;;;1.50;99.90;;;;;;5096960;28;20227;-83
2021/12/29 05:29:32;;;;;;;15.07;12.00;;;1.50;99.90;;;;;;5094934;28;20264;-83
2021/12/29 05:32:00;;;;;;;18.47;12.67;;;1.50;99.90;;;;;;5097264;28;20291;-83
2021/12/29 05:34:28;;;;;;;15.57;11.30;;;1.50;99.90;;;;;;5111173;28;20265;-83
2021/12/29 05:36:56;;;;;;;15.17;10.97;;;1.50;99.90;;;;;;5111230;28;20216;-83
2021/12/29 05:39:27;;;;;;;15.13;11.73;;;1.50;99.90;;;;;;5094390;28;20316;-83
2021/12/29 05:41:55;;;;;;;19.47;13.20;;;1.60;99.90;;;;;;5094894;28;20231;-83
2021/12/29 05:44:23;;;;;;;14.70;11.57;;;1.60;99.90;;;;;;5097571;28;20247;-83
2021/12/29 05:46:52;;;;;;;20.13;13.63;;;1.60;99.90;;;;;;5115089;28;20298;-83
2021/12/29 05:49:20;;;;;;;13.10;11.27;;;1.60;99.90;;;;;;5112798;28;20278;-83
2021/12/29 05:51:49;;;;;;;15.70;12.80;;;1.60;99.90;;;;;;5097186;28;20274;-83
2021/12/29 05:54:17;;;;;;;15.73;11.30;;;1.60;99.90;;;;;;5109881;28;20259;-83
2021/12/29 05:56:50;;;;;;;14.43;12.93;;;1.60;99.90;;;;;;5100940;28;20273;-83
2021/12/29 05:59:19;;;;;;;16.60;12.50;;;1.60;99.90;;;;;;5110011;28;20193;-83
2021/12/29 06:01:48;;;;;;;13.90;12.40;;;1.60;99.90;;;;;;5095665;28;20200;-83
2021/12/29 06:04:17;;;;;;;15.47;12.23;;;1.60;99.90;;;;;;5104534;28;20204;-83
2021/12/29 06:06:45;;;;;;;17.57;12.93;;;1.60;99.90;;;;;;5096026;28;20224;-83
2021/12/29 06:09:14;;;;;;;20.27;14.27;;;1.60;99.90;;;;;;5093922;28;20295;-83
2021/12/29 06:11:43;;;;;;;17.03;11.83;;;1.60;99.90;;;;;;5096765;28;20204;-82
2021/12/29 06:14:13;;;;;;;13.83;12.30;;;1.70;99.90;;;;;;5103162;28;20254;-83
2021/12/29 06:16:41;;;;;;;16.90;13.50;;;1.70;99.90;;;;;;5101525;28;20307;-83
2021/12/29 06:19:10;;;;;;;14.50;12.07;;;1.70;99.90;;;;;;5103029;28;20200;-83
2021/12/29 06:21:38;;;;;;;16.03;13.23;;;1.80;99.90;;;;;;5094282;28;20224;-83
2021/12/29 06:24:07;;;;;;;18.33;12.07;;;1.70;99.90;;;;;;5096752;28;20282;-83
2021/12/29 06:26:36;;;;;;;13.97;12.10;;;1.80;99.90;;;;;;5094031;28;20235;-83
2021/12/29 06:29:04;;;;;;;16.17;12.87;;;1.80;99.90;;;;;;5110754;28;20238;-83
2021/12/29 06:31:34;;;;;;;16.03;12.83;;;1.80;99.90;;;;;;5103036;28;20252;-83
2021/12/29 06:34:03;;;;;;;16.83;13.20;;;1.80;99.90;;;;;;5094243;28;20196;-83
2021/12/29 06:36:32;;;;;;;18.13;13.40;;;1.80;99.90;;;;;;5094200;28;20308;-83
2021/12/29 06:39:00;;;;;;;19.87;14.03;;;1.80;99.90;;;;;;5093809;28;20227;-83
2021/12/29 06:41:28;;;;;;;17.63;12.77;;;1.80;99.90;;;;;;5094679;28;20221;-84
2021/12/29 06:43:56;;;;;;;17.53;12.30;;;1.80;99.90;;;;;;5094934;28;20213;-83
2021/12/29 06:46:25;;;;;;;15.67;12.20;;;1.80;99.90;;;;;;5093945;28;20279;-83
2021/12/29 06:48:54;;;;;;;13.53;11.73;;;1.80;99.90;;;;;;5096234;28;20192;-83
2021/12/29 06:51:23;;;;;;;13.53;12.07;;;1.80;99.90;;;;;;5113996;28;20282;-83
2021/12/29 06:53:52;;;;;;;15.27;12.00;;;1.80;99.90;;;;;;5102704;28;20236;-83
2021/12/29 06:56:21;;;;;;;14.20;11.80;;;1.80;99.90;;;;;;5110212;28;20239;-83
2021/12/29 06:58:49;;;;;;;13.67;11.40;;;1.80;99.90;;;;;;5093773;28;20224;-83
2021/12/29 07:01:18;;;;;;;15.80;12.13;;;1.80;99.90;;;;;;5108447;28;20304;-83
2021/12/29 07:03:46;;;;;;;16.23;12.63;;;1.70;99.90;;;;;;5093814;28;20212;-83
2021/12/29 07:06:16;;;;;;;17.13;12.03;;;1.70;99.90;;;;;;5111160;28;20275;-83
2021/12/29 07:08:44;;;;;;;16.63;12.87;;;1.80;99.90;;;;;;5102464;28;20295;-84
2021/12/29 07:11:13;;;;;;;16.90;12.47;;;1.80;99.90;;;;;;5094849;28;20193;-83
2021/12/29 07:13:44;;;;;;;17.17;12.93;;;1.80;99.90;;;;;;5112000;28;20203;-83
2021/12/29 07:16:12;;;;;;;16.50;13.00;;;1.80;99.90;;;;;;5094686;28;20232;-84
2021/12/29 07:18:41;;;;;;;14.70;11.77;;;1.90;99.90;;;;;;5092703;28;20212;-84
2021/12/29 07:21:09;;;;;;;17.77;12.50;;;1.90;99.90;;;;;;5110258;28;20314;-83
2021/12/29 07:23:39;;;;;;;18.10;12.93;;;1.90;99.90;;;;;;5105081;28;20200;-83
2021/12/29 07:26:09;;;;;;;21.83;14.33;;;2.00;99.90;;;;;;5105633;28;20259;-84
2021/12/29 07:28:38;;;;;;;17.10;13.53;;;2.00;99.90;;;;;;5093187;28;20295;-84
2021/12/29 07:31:07;;;;;;;20.93;13.30;;;2.00;99.90;;;;;;5094598;28;20197;-84
2021/12/29 07:33:36;;;;;;;16.20;13.23;;;2.00;99.90;;;;;;5093495;28;20255;-83
2021/12/29 07:36:04;;;;;;;14.20;12.70;;;2.00;99.90;;;;;;5094765;28;20250;-84
2021/12/29 07:38:33;;;;;;;15.87;12.90;;;2.00;99.90;;;;;;5100449;28;20214;-83
2021/12/29 07:41:03;;;;;;;15.27;13.43;;;2.10;99.90;;;;;;5112888;28;20243;-83
2021/12/29 07:43:32;;;;;;;19.37;13.63;;;2.10;99.90;;;;;;5104133;28;20224;-82
2021/12/29 07:46:00;;;;;;;22.60;13.33;;;2.20;99.90;;;;;;5113381;28;20219;-82
2021/12/29 07:48:30;;;;;;;22.60;12.70;;;2.20;99.90;;;;;;5117124;28;20271;-82
2021/12/29 07:51:02;;;;;;;14.27;12.77;;;2.20;99.90;;;;;;5133689;27;20256;-83
2021/12/29 07:53:31;;;;;;;16.47;14.23;;;2.30;99.90;;;;;;5134222;28;20207;-82
2021/12/29 07:55:59;;;;;;;19.87;13.50;;;2.40;99.90;;;;;;5133318;28;20227;-82
2021/12/29 07:58:29;;;;;;;16.70;13.30;;;2.40;99.90;;;;;;5133787;28;20286;-82
2021/12/29 08:00:59;;;;;;;17.87;13.10;;;2.50;99.90;;;;;;5127066;28;20208;-82
2021/12/29 08:03:27;;;;;;;13.77;12.10;;;2.50;99.90;;;;;;5113547;28;20207;-82
2021/12/29 08:05:55;;;;;;;13.60;12.20;;;2.60;99.90;;;;;;5113308;28;20267;-82
2021/12/29 08:08:24;;;;;;;16.03;13.73;;;2.70;99.90;;;;;;5112338;28;20220;-82
2021/12/29 08:10:52;;;;;;;14.67;13.17;;;2.80;99.90;;;;;;5111856;28;20207;-82
2021/12/29 08:13:22;;;;;;;17.47;14.27;;;2.80;99.90;;;;;;5112766;28;20219;-82
2021/12/29 08:15:52;;;;;;;22.83;13.63;;;2.90;99.90;;;;;;5111671;28;20222;-82
2021/12/29 08:18:20;;;;;;;14.63;12.57;;;3.00;99.90;;;;;;5111944;28;20250;-84
2021/12/29 08:20:49;;;;;;;30.30;14.75;;;3.00;99.90;;;;;;5110656;28;20243;-82
2021/12/29 08:23:17;;;;;;;18.23;13.55;;;3.10;99.90;;;;;;5100611;28;20208;-87
2021/12/29 08:26:12;;;;;;;17.57;14.10;;;3.20;99.90;;;;;;5109467;28;20247;-83
2021/12/29 08:28:40;;;;;;;15.48;13.23;;;3.30;99.90;;;;;;5100441;28;20201;-83
2021/12/29 08:31:14;;;;;;;18.67;14.23;;;3.30;99.90;;;;;;5105234;28;20193;-82
2021/12/29 08:33:43;;;;;;;17.15;13.63;;;3.30;99.90;;;;;;5109223;28;20236;-83
2021/12/29 08:36:11;;;;;;;16.25;14.55;;;3.30;99.90;;;;;;5116291;28;20294;-83
2021/12/29 08:38:39;;;;;;;16.05;14.13;;;3.20;99.90;;;;;;5104695;28;20292;-83
2021/12/29 08:41:07;;;;;;;19.53;15.70;;;3.30;99.90;;;;;;5094949;28;20234;-83
2021/12/29 08:43:36;;;;;;;17.27;14.53;;;3.30;99.90;;;;;;5113267;28;20271;-84
2021/12/29 08:46:04;;;;;;;17.67;15.13;;;3.50;99.90;;;;;;5116053;28;20246;-83
2021/12/29 08:48:37;;;;;;;19.57;15.87;;;3.50;99.90;;;;;;5107795;28;20204;-83
2021/12/29 08:51:05;;;;;;;23.07;15.37;;;3.60;99.90;;;;;;5115623;28;20199;-83
2021/12/29 08:53:34;;;;;;;18.48;14.50;;;3.60;99.90;;;;;;5112894;28;20264;-83
2021/12/29 08:56:02;;;;;;;18.05;16.08;;;3.60;99.90;;;;;;5109806;28;20247;-81
2021/12/29 08:58:33;;;;;;;18.33;15.98;;;3.60;99.90;;;;;;5111433;28;20196;-81
2021/12/29 09:01:26;;;;;;;18.35;16.35;;;3.70;99.90;;;;;;5113172;28;20287;-81
2021/12/29 09:03:57;;;;;;;16.45;14.77;;;3.80;99.90;;;;;;5114872;28;20307;-81
2021/12/29 09:06:41;;;;;;;19.40;16.08;;;3.90;99.90;;;;;;5099248;28;20244;-81
2021/12/29 09:09:21;;;;;;;23.63;17.48;;;4.10;99.90;;;;;;5095596;28;20231;-81
2021/12/29 09:12:06;;;;;;;16.58;14.57;;;4.20;99.90;;;;;;5116093;28;20196;-81
2021/12/29 09:14:34;;;;;;;18.65;16.75;;;4.40;99.90;;;;;;5111600;28;20264;-81
2021/12/29 09:17:03;;;;;;;20.20;16.60;;;4.50;99.90;;;;;;5095061;28;20230;-82
2021/12/29 09:23:04;;;;;;;23.25;17.48;;;4.60;99.90;;;;;;5104297;28;20243;-82
2021/12/29 09:25:38;;;;;;;20.33;17.85;;;4.60;99.90;;;;;;5110163;28;20226;-81
2021/12/29 09:28:08;;;;;;;18.50;15.90;;;4.70;99.90;;;;;;5093692;28;20239;-82
2021/12/29 09:30:39;;;;;;;20.30;16.13;;;4.70;99.90;;;;;;5093561;28;20223;-82
2021/12/29 09:33:08;;;;;;;19.58;17.13;;;4.70;99.90;;;;;;5108953;28;20257;-82
2021/12/29 09:35:37;;;;;;;20.02;16.13;;;4.80;99.90;;;;;;5111816;28;20250;-83
2021/12/29 09:38:08;;;;;;;22.88;17.55;;;4.90;99.90;;;;;;5114596;28;20203;-84
2021/12/29 09:40:39;;;;;;;21.70;16.83;;;5.00;99.90;;;;;;5112705;27;20227;-83
2021/12/29 09:43:09;;;;;;;23.98;17.67;;;5.00;99.90;;;;;;5099080;28;20224;-80
2021/12/29 09:45:38;;;;;;;21.60;16.38;;;5.10;99.90;;;;;;5113673;28;20247;-80
2021/12/29 09:48:07;;;;;;;17.80;15.95;;;5.20;99.90;;;;;;5100258;28;20207;-80
2021/12/29 09:50:36;;;;;;;20.33;16.67;;;5.20;99.90;;;;;;5104673;28;20205;-80
2021/12/29 09:53:06;;;;;;;18.33;16.20;;;5.30;99.90;;;;;;5114104;28;20263;-82
2021/12/29 09:55:36;;;;;;;19.13;16.00;;;5.30;99.90;;;;;;5107532;28;20290;-81
2021/12/29 09:58:06;;;;;;;19.50;15.32;;;5.40;99.90;;;;;;5105250;28;20283;-83
2021/12/29 10:00:37;;;;;;;28.98;18.00;;;5.50;99.90;;;;;;5093018;28;20231;-86
2021/12/29 10:03:10;;;;;;;17.88;15.95;;;5.60;99.90;;;;;;5100484;28;20219;-84
2021/12/29 10:05:40;;;;;;;20.15;17.75;;;5.80;99.90;;;;;;5108202;28;20258;-83
2021/12/29 10:08:11;;;;;;;19.30;15.48;;;5.90;99.90;;;;;;5093560;28;20231;-84
2021/12/29 10:10:44;;;;;;;24.40;18.13;;;6.00;99.90;;;;;;5093411;28;20287;-83
2021/12/29 10:13:13;;;;;;;18.92;16.45;;;6.20;99.90;;;;;;5101452;28;20200;-84
2021/12/29 10:15:43;;;;;;;18.20;16.20;;;6.30;99.90;;;;;;5112768;28;20394;-85
2021/12/29 10:18:16;;;;;;;23.13;17.98;;;6.40;99.90;;;;;;5099180;28;20215;-86
2021/12/29 10:20:49;;;;;;;20.02;15.90;;;6.50;99.90;;;;;;5103832;27;20220;-83
2021/12/29 10:23:20;;;;;;;18.83;15.90;;;6.70;99.90;;;;;;5105041;28;20311;-83
2021/12/29 10:25:50;;;;;;;17.85;15.60;;;6.80;99.90;;;;;;5109151;28;20244;-83
2021/12/29 10:28:22;;;;;;;16.13;13.88;;;6.80;99.90;;;;;;5104093;28;20207;-83
2021/12/29 10:31:03;;;;;;;18.30;13.10;;;6.90;99.90;;;;;;5102605;28;20227;-83
2021/12/29 10:33:33;;;;;;;15.90;9.75;;;7.00;99.90;;;;;;5105136;28;20196;-83
2021/12/29 10:36:16;;;;;;;8.57;6.53;;;7.10;99.90;;;;;;5113062;28;20279;-83
2021/12/29 10:38:47;;;;;;;2.60;2.40;;;7.20;99.90;;;;;;5103266;28;20226;-83
2021/12/29 10:41:17;;;;;;;1.60;1.50;;;7.40;99.90;;;;;;5112903;28;20231;-84
2021/12/29 10:43:54;;;;;;;1.38;1.30;;;7.50;99.90;;;;;;5111756;28;20254;-85
2021/12/29 10:46:23;;;;;;;1.30;1.20;;;7.80;99.90;;;;;;5112514;28;20231;-84
2021/12/29 10:48:54;;;;;;;1.40;1.30;;;7.90;99.90;;;;;;5111488;28;20242;-83
2021/12/29 10:51:29;;;;;;;0.88;0.88;;;8.00;99.90;;;;;;5112955;28;20199;-83
2021/12/29 10:54:09;;;;;;;0.70;0.70;;;8.00;99.90;;;;;;5112181;28;20230;-83
2021/12/29 10:56:40;;;;;;;0.80;0.80;;;8.10;99.90;;;;;;5112528;28;20227;-83
2021/12/29 10:59:19;;;;;;;0.80;0.80;;;8.10;99.90;;;;;;5096821;28;20236;-83
2021/12/29 11:01:49;;;;;;;0.38;0.38;;;8.10;99.90;;;;;;5098571;28;20261;-84
2021/12/29 11:04:19;;;;;;;2.28;0.77;;;8.00;99.90;;;;;;5095866;28;20227;-83
2021/12/29 11:06:52;;;;;;;1.00;1.00;;;7.90;99.90;;;;;;5112378;28;20299;-83
2021/12/29 11:09:29;;;;;;;1.27;1.17;;;8.00;99.90;;;;;;5095777;28;20228;-83
2021/12/29 11:12:00;;;;;;;1.23;1.13;;;8.00;99.90;;;;;;5092772;28;20222;-90
2021/12/29 11:14:31;;;;;;;1.20;1.10;;;8.10;99.90;;;;;;5092963;28;20367;-83
2021/12/29 11:17:06;;;;;;;1.08;1.08;;;8.10;99.90;;;;;;5100642;28;20207;-82
2021/12/29 11:19:36;;;;;;;1.23;1.13;;;8.30;99.90;;;;;;5111855;28;20203;-83
2021/12/29 11:22:11;;;;;;;1.25;1.15;;;8.60;99.90;;;;;;5116597;28;20207;-83
2021/12/29 11:24:42;;;;;;;1.05;1.05;;;8.80;99.90;;;;;;5132862;28;20206;-83
2021/12/29 11:27:15;;;;;;;0.85;0.85;;;8.80;99.90;;;;;;5120257;28;20227;-83
2021/12/29 11:29:55;;;;;;;0.90;0.90;;;8.90;99.90;;;;;;5111440;28;20253;-83
2021/12/29 11:32:29;;;;;;;0.90;0.90;;;9.20;99.90;;;;;;5112463;28;20299;-83
2021/12/29 11:35:08;;;;;;;1.55;1.45;;;9.50;99.90;;;;;;5112424;28;20227;-83
2021/12/29 11:37:39;;;;;;;0.98;0.98;;;9.60;99.90;;;;;;5112881;28;20268;-83
2021/12/29 11:40:12;;;;;;;1.00;0.95;;;9.60;99.90;;;;;;5099335;28;20200;-83
2021/12/29 11:42:49;;;;;;;0.98;0.80;;;9.50;99.90;;;;;;5091934;28;20286;-84
2021/12/29 11:45:18;;;;;;;2.13;1.30;;;9.20;99.90;;;;;;5106272;28;20304;-83
2021/12/29 11:47:48;;;;;;;1.15;1.05;;;9.00;99.90;;;;;;5111551;28;20222;-82
2021/12/29 11:50:21;;;;;;;0.77;0.77;;;8.90;99.90;;;;;;5108827;28;20252;-82
2021/12/29 11:53:10;;;;;;;0.93;0.93;;;8.80;99.90;;;;;;5092237;28;20205;-82
2021/12/29 11:55:43;;;;;;;1.40;1.30;;;8.60;99.90;;;;;;5070820;28;20220;-82
2021/12/29 11:58:16;;;;;;;1.52;1.42;;;8.50;99.90;;;;;;5105712;28;20279;-82
2021/12/29 12:00:59;;;;;;;1.10;1.10;;;8.40;99.90;;;;;;5095336;28;20208;-82
2021/12/29 12:03:43;;;;;;;1.23;1.13;;;8.20;99.90;;;;;;5095508;28;20220;-82
2021/12/29 12:06:25;;;;;;;2.42;1.73;;;8.00;99.90;;;;;;5095766;28;20227;-82
2021/12/29 12:09:15;;;;;;;0.82;0.80;;;7.90;99.90;;;;;;5095329;28;20252;-82
2021/12/29 12:11:51;;;;;;;0.88;0.88;;;7.90;99.90;;;;;;5095504;28;20288;-82
2021/12/29 12:14:24;;;;;;;1.10;1.00;;;7.70;99.90;;;;;;5099839;28;20224;-82
2021/12/29 12:16:55;;;;;;;1.38;1.27;;;7.70;99.90;;;;;;5113379;27;20224;-83
2021/12/29 12:19:27;;;;;;;2.65;1.83;;;7.70;99.90;;;;;;5136487;27;20207;-82
2021/12/29 12:22:05;;;;;;;2.35;1.85;;;7.70;99.90;;;;;;5126867;27;20291;-82
2021/12/29 12:24:35;;;;;;;1.50;1.40;;;7.60;99.90;;;;;;5115406;28;20250;-82
2021/12/29 12:27:06;;;;;;;1.65;1.40;;;7.60;99.90;;;;;;5115878;28;20413;-83
2021/12/29 12:29:41;;;;;;;1.45;1.35;;;7.60;99.90;;;;;;5114801;28;20208;-84
2021/12/29 12:32:15;;;;;;;1.30;1.20;;;7.50;99.90;;;;;;5100159;28;20216;-86
2021/12/29 12:34:53;;;;;;;1.67;1.30;;;7.50;99.90;;;;;;5097549;28;20228;-84
2021/12/29 12:37:29;;;;;;;1.40;1.30;;;7.50;99.90;;;;;;5096040;28;20201;-84
2021/12/29 12:40:02;;;;;;;3.33;1.92;;;7.40;99.90;;;;;;5094765;28;20204;-88
2021/12/29 12:42:31;;;;;;;1.63;1.52;;;7.40;99.90;;;;;;5095338;28;20250;-84
2021/12/29 12:45:02;;;;;;;2.75;2.55;;;7.40;99.90;;;;;;5110132;28;20314;-84
2021/12/29 12:47:32;;;;;;;1.83;1.73;;;7.40;99.90;;;;;;5108406;28;20196;-82
2021/12/29 12:50:02;;;;;;;1.80;1.70;;;7.40;99.90;;;;;;5094715;28;20234;-85
2021/12/29 12:52:43;;;;;;;2.55;2.42;;;7.40;99.90;;;;;;5095733;28;20279;-85
2021/12/29 12:55:12;;;;;;;2.97;2.72;;;7.40;99.90;;;;;;5104647;28;20243;-82
2021/12/29 12:57:45;;;;;;;2.40;2.28;;;7.40;99.90;;;;;;5115279;28;20204;-81
2021/12/29 13:00:19;;;;;;;3.90;3.65;;;7.40;99.90;;;;;;5094717;28;20214;-81
2021/12/29 13:02:51;;;;;;;2.70;2.50;;;7.40;99.90;;;;;;5094382;28;20246;-81
2021/12/29 13:05:22;;;;;;;4.15;2.90;;;7.40;99.90;;;;;;5094452;28;20243;-81